createdAt,value
2023-02-28T00:01:31.094Z,102294.09
2023-02-28T00:03:59.082Z,102294.31
2023-02-28T00:06:26.860Z,102301.25
2023-02-28T00:08:53.948Z,102303.72
2023-02-28T00:11:21.142Z,102297.66
2023-02-28T00:13:49.528Z,102305.28
2023-02-28T00:16:21.489Z,102297.66
2023-02-28T00:18:49.846Z,102294.31
2023-02-28T00:21:19.209Z,102302.94
2023-02-28T00:23:46.258Z,102288.34
2023-02-28T00:26:13.398Z,102300.25
2023-02-28T00:28:40.406Z,102293.28
2023-02-28T00:31:07.377Z,102296.56
2023-02-28T00:33:34.371Z,102293.88
2023-02-28T00:36:08.120Z,102299.47
2023-02-28T00:38:35.236Z,102304.47
2023-02-28T00:41:05.652Z,102305.91
2023-02-28T00:43:35.311Z,102305.47
2023-02-28T00:46:02.979Z,102299.22
2023-02-28T00:48:30.063Z,102304.28
2023-02-28T00:50:56.997Z,102307.75
2023-02-28T00:53:24.162Z,102304.38
2023-02-28T00:55:51.915Z,102296.63
2023-02-28T00:58:19.057Z,102303.41
2023-02-28T01:00:49.910Z,102312.81
2023-02-28T01:03:21.711Z,102306.66
2023-02-28T01:05:48.875Z,102310.00
2023-02-28T01:08:16.023Z,102302.28
2023-02-28T01:10:43.495Z,102310.00
2023-02-28T01:13:10.683Z,102309.91
2023-02-28T01:15:37.793Z,102301.84
2023-02-28T01:18:04.815Z,102311.06
2023-02-28T01:20:31.752Z,102296.28
2023-02-28T01:22:58.692Z,102294.47
2023-02-28T01:25:25.618Z,102291.56
2023-02-28T01:27:53.164Z,102293.13
2023-02-28T01:30:20.185Z,102291.06
2023-02-28T01:32:47.097Z,102285.66
2023-02-28T01:35:14.030Z,102290.72
2023-02-28T01:37:40.949Z,102285.22
2023-02-28T01:40:08.924Z,102287.47
2023-02-28T01:42:35.798Z,102287.06
2023-02-28T01:45:20.832Z,102289.19
2023-02-28T01:47:52.093Z,102283.38
2023-02-28T01:50:27.967Z,102281.13
2023-02-28T01:52:58.934Z,102284.72
2023-02-28T01:55:29.617Z,102282.41
2023-02-28T01:57:59.607Z,102288.66
2023-02-28T02:00:28.760Z,102286.31
2023-02-28T02:03:01.173Z,102287.28
2023-02-28T02:05:32.211Z,102291.88
2023-02-28T02:08:06.016Z,102289.63
2023-02-28T02:10:45.037Z,102284.03
2023-02-28T02:13:48.354Z,102279.31
2023-02-28T02:16:26.832Z,102284.91
2023-02-28T02:18:57.870Z,102285.47
2023-02-28T02:21:48.729Z,102284.97
2023-02-28T02:24:48.385Z,102279.53
2023-02-28T02:27:19.215Z,102279.03
2023-02-28T02:30:21.021Z,102277.78
2023-02-28T02:33:41.043Z,102277.47
2023-02-28T02:36:28.493Z,102277.88
2023-02-28T02:39:26.111Z,102277.38
2023-02-28T02:42:01.295Z,102283.22
2023-02-28T02:45:07.835Z,102281.97
2023-02-28T02:47:35.771Z,102272.34
2023-02-28T02:50:07.575Z,102280.94
2023-02-28T02:52:45.350Z,102279.16
2023-02-28T02:55:15.904Z,102279.78
2023-02-28T02:58:01.336Z,102282.03
2023-02-28T03:00:40.748Z,102281.00
2023-02-28T03:03:10.788Z,102292.31
2023-02-28T03:05:47.479Z,102281.91
2023-02-28T03:08:15.546Z,102287.06
2023-02-28T03:10:49.952Z,102289.50
2023-02-28T03:13:56.110Z,102289.50
2023-02-28T03:16:44.833Z,102292.06
2023-02-28T03:19:45.490Z,102296.56
2023-02-28T03:22:26.248Z,102296.69
2023-02-28T03:25:08.886Z,102296.56
2023-02-28T03:27:59.840Z,102301.81
2023-02-28T03:30:49.122Z,102296.56
2023-02-28T03:33:40.776Z,102302.47
2023-02-28T03:36:17.144Z,102299.66
2023-02-28T03:38:51.932Z,102300.53
2023-02-28T03:41:24.232Z,102301.31
2023-02-28T03:44:16.708Z,102306.34
2023-02-28T03:46:55.277Z,102300.97
2023-02-28T03:49:32.283Z,102304.16
2023-02-28T03:52:05.321Z,102308.06
2023-02-28T03:54:44.003Z,102305.38
2023-02-28T03:57:29.036Z,102301.16
2023-02-28T04:00:06.827Z,102300.00
2023-02-28T04:02:34.675Z,102301.66
2023-02-28T04:05:02.127Z,102309.50
2023-02-28T04:07:32.434Z,102308.59
2023-02-28T04:10:00.063Z,102306.03
2023-02-28T04:12:27.256Z,102300.00
2023-02-28T04:14:55.322Z,102309.38
2023-02-28T04:17:22.375Z,102303.22
2023-02-28T04:19:49.394Z,102303.22
2023-02-28T04:22:18.162Z,102304.00
2023-02-28T04:24:45.532Z,102295.50
2023-02-28T04:27:12.471Z,102301.53
2023-02-28T04:29:39.477Z,102305.78
2023-02-28T04:32:06.911Z,102314.06
2023-02-28T04:34:34.100Z,102317.00
2023-02-28T04:37:12.733Z,102305.47
2023-02-28T04:39:41.419Z,102313.81
2023-02-28T04:42:08.619Z,102319.72
2023-02-28T04:44:35.542Z,102319.25
2023-02-28T04:47:02.468Z,102316.31
2023-02-28T04:49:29.453Z,102313.63
2023-02-28T04:51:56.744Z,102318.75
2023-02-28T04:54:23.679Z,102324.13
2023-02-28T04:56:50.931Z,102320.81
2023-02-28T04:59:18.506Z,102326.72
2023-02-28T05:01:50.069Z,102327.34
2023-02-28T05:04:17.650Z,102322.78
2023-02-28T05:06:44.744Z,102332.00
2023-02-28T05:09:14.557Z,102329.31
2023-02-28T05:11:41.930Z,102327.66
2023-02-28T05:14:14.988Z,102321.75
2023-02-28T05:16:42.120Z,102330.22
2023-02-28T05:19:09.246Z,102333.69
2023-02-28T05:21:39.356Z,102335.22
2023-02-28T05:24:10.916Z,102346.25
2023-02-28T05:26:43.728Z,102335.34
2023-02-28T05:29:11.369Z,102338.94
2023-02-28T05:31:38.803Z,102345.75
2023-02-28T05:34:06.023Z,102336.13
2023-02-28T05:36:33.696Z,102338.44
2023-02-28T05:39:00.784Z,102344.47
2023-02-28T05:41:28.306Z,102339.34
2023-02-28T05:43:55.850Z,102348.56
2023-02-28T05:46:22.840Z,102347.41
2023-02-28T05:48:50.217Z,102354.75
2023-02-28T05:51:17.860Z,102358.75
2023-02-28T05:53:45.224Z,102356.81
2023-02-28T05:56:12.214Z,102353.22
2023-02-28T05:58:39.106Z,102355.03
2023-02-28T06:01:48.914Z,102360.16
2023-02-28T06:04:30.988Z,102363.75
2023-02-28T06:06:59.011Z,102353.88
2023-02-28T06:09:26.080Z,102356.78
2023-02-28T06:11:53.036Z,102355.50
2023-02-28T06:14:21.858Z,102366.91
2023-02-28T06:16:48.980Z,102355.34
2023-02-28T06:19:16.598Z,102365.22
2023-02-28T06:21:44.189Z,102370.09
2023-02-28T06:24:11.527Z,102362.72
2023-02-28T06:26:38.690Z,102364.25
2023-02-28T06:29:05.669Z,102365.09
2023-02-28T06:31:33.143Z,102368.03
2023-02-28T06:34:00.326Z,102370.75
2023-02-28T06:36:27.235Z,102368.22
2023-02-28T06:38:56.495Z,102374.34
2023-02-28T06:41:28.426Z,102370.13
2023-02-28T06:43:55.884Z,102372.47
2023-02-28T06:46:23.145Z,102376.13
2023-02-28T06:48:50.879Z,102373.56
2023-02-28T06:51:25.236Z,102370.41
2023-02-28T06:53:52.607Z,102371.19
2023-02-28T06:56:21.469Z,102367.94
2023-02-28T06:58:51.268Z,102371.31
2023-02-28T07:01:20.029Z,102373.47
2023-02-28T07:03:48.068Z,102373.94
2023-02-28T07:06:15.076Z,102373.94
2023-02-28T07:08:42.170Z,102373.44
2023-02-28T07:11:09.171Z,102369.06
2023-02-28T07:13:36.511Z,102375.53
2023-02-28T07:16:10.049Z,102368.53
2023-02-28T07:18:38.695Z,102371.84
2023-02-28T07:21:09.455Z,102370.19
2023-02-28T07:23:38.917Z,102370.94
2023-02-28T07:26:08.326Z,102371.97
2023-02-28T07:28:35.265Z,102373.91
2023-02-28T07:31:07.266Z,102379.34
2023-02-28T07:33:35.150Z,102375.97
2023-02-28T07:36:09.426Z,102374.16
2023-02-28T07:38:38.335Z,102371.44
2023-02-28T07:41:05.676Z,102372.00
2023-02-28T07:43:33.892Z,102375.84
2023-02-28T07:46:11.236Z,102377.00
2023-02-28T07:48:38.350Z,102378.22
2023-02-28T07:51:05.589Z,102376.50
2023-02-28T07:53:32.483Z,102384.50
2023-02-28T07:56:01.788Z,102374.88
2023-02-28T07:58:30.534Z,102382.00
2023-02-28T08:00:58.639Z,102383.06
2023-02-28T08:03:25.926Z,102384.91
2023-02-28T08:05:55.666Z,102387.63
2023-02-28T08:08:22.545Z,102377.00
2023-02-28T08:10:49.467Z,102385.06
2023-02-28T08:13:16.482Z,102386.19
2023-02-28T08:15:44.033Z,102383.63
2023-02-28T08:18:11.036Z,102381.88
2023-02-28T08:20:38.052Z,102379.09
2023-02-28T08:23:04.960Z,102377.09
2023-02-28T08:25:31.917Z,102389.41
2023-02-28T08:27:58.921Z,102386.63
2023-02-28T08:30:25.954Z,102381.13
2023-02-28T08:32:52.966Z,102382.69
2023-02-28T08:35:19.924Z,102386.34
2023-02-28T08:37:50.429Z,102384.78
2023-02-28T08:40:19.815Z,102383.13
2023-02-28T08:42:47.273Z,102384.13
2023-02-28T08:45:15.821Z,102386.44
2023-02-28T08:47:42.743Z,102378.41
2023-02-28T08:50:10.399Z,102387.13
2023-02-28T08:52:37.307Z,102382.53
2023-02-28T08:55:04.415Z,102393.25
2023-02-28T08:57:31.331Z,102388.84
2023-02-28T08:59:58.318Z,102382.59
2023-02-28T09:02:25.238Z,102381.06
2023-02-28T09:04:52.249Z,102382.03
2023-02-28T09:07:19.149Z,102388.31
2023-02-28T09:09:55.632Z,102386.59
2023-02-28T09:12:27.106Z,102395.31
2023-02-28T09:14:54.812Z,102387.09
2023-02-28T09:17:21.983Z,102394.03
2023-02-28T09:19:50.644Z,102389.50
2023-02-28T09:22:17.595Z,102394.03
2023-02-28T09:24:45.571Z,102383.66
2023-02-28T09:27:12.617Z,102384.69
2023-02-28T09:29:39.594Z,102389.09
2023-02-28T09:32:08.876Z,102394.41
2023-02-28T09:34:37.946Z,102385.56
2023-02-28T09:37:05.168Z,102380.19
2023-02-28T09:39:32.725Z,102386.16
2023-02-28T09:42:00.114Z,102383.28
2023-02-28T09:44:46.354Z,102394.56
2023-02-28T09:47:37.913Z,102390.06
2023-02-28T09:50:35.360Z,102391.47
2023-02-28T09:53:11.373Z,102392.16
2023-02-28T09:55:47.298Z,102387.94
2023-02-28T09:58:45.966Z,102390.56
2023-02-28T10:01:37.097Z,102396.06
2023-02-28T10:04:43.743Z,102383.56
2023-02-28T10:08:16.372Z,102393.59
2023-02-28T10:10:50.039Z,102396.47
2023-02-28T10:13:47.356Z,102396.66
2023-02-28T10:16:40.254Z,102395.78
2023-02-28T10:19:36.261Z,102410.09
2023-02-28T10:22:19.084Z,102406.31
2023-02-28T10:24:54.626Z,102401.63
2023-02-28T10:27:31.320Z,102403.84
2023-02-28T10:30:01.520Z,102393.19
2023-02-28T10:32:33.865Z,102385.09
2023-02-28T10:35:26.244Z,102388.31
2023-02-28T10:37:59.732Z,102398.25
2023-02-28T10:40:34.019Z,102399.66
2023-02-28T10:43:07.352Z,102409.00
2023-02-28T10:45:37.997Z,102395.06
2023-02-28T10:48:17.035Z,102405.34
2023-02-28T10:50:48.042Z,102404.84
2023-02-28T10:53:59.525Z,102399.19
2023-02-28T10:56:28.017Z,102401.72
2023-02-28T10:59:16.269Z,102395.84
2023-02-28T11:01:51.612Z,102382.75
2023-02-28T11:04:30.591Z,102385.66
2023-02-28T11:07:37.312Z,102378.06
2023-02-28T11:10:20.171Z,102366.41
2023-02-28T11:12:52.874Z,102364.38
2023-02-28T11:15:25.388Z,102369.06
2023-02-28T11:18:02.823Z,102371.03
2023-02-28T11:20:33.720Z,102366.84
2023-02-28T11:23:05.121Z,102367.53
2023-02-28T11:25:37.378Z,102353.78
2023-02-28T11:28:07.699Z,102348.75
2023-02-28T11:30:38.955Z,102352.75
2023-02-28T11:33:29.763Z,102351.09
2023-02-28T11:36:12.164Z,102352.56
2023-02-28T11:38:39.420Z,102359.38
2023-02-28T11:41:36.173Z,102362.78
2023-02-28T11:44:21.569Z,102359.53
2023-02-28T11:47:19.081Z,102361.69
2023-02-28T11:50:33.539Z,102363.94
2023-02-28T11:53:21.029Z,102368.25
2023-02-28T11:56:01.762Z,102365.22
2023-02-28T11:58:55.240Z,102358.56
2023-02-28T12:02:08.067Z,102359.81
2023-02-28T12:05:01.651Z,102362.28
2023-02-28T12:07:54.095Z,102357.44
2023-02-28T12:10:31.655Z,102350.59
2023-02-28T12:13:07.408Z,102365.44
2023-02-28T12:16:14.298Z,102360.97
2023-02-28T12:19:05.854Z,102350.63
2023-02-28T12:21:49.468Z,102352.41
2023-02-28T12:24:19.004Z,102355.53
2023-02-28T12:26:47.890Z,102351.16
2023-02-28T12:29:27.504Z,102343.94
2023-02-28T12:32:09.059Z,102349.69
2023-02-28T12:34:42.584Z,102340.69
2023-02-28T12:37:20.470Z,102331.84
2023-02-28T12:39:52.156Z,102314.78
2023-02-28T12:42:26.509Z,102314.84
2023-02-28T12:45:18.593Z,102307.53
2023-02-28T12:47:52.577Z,102305.22
2023-02-28T12:50:20.535Z,102294.38
2023-02-28T12:52:59.209Z,102290.09
2023-02-28T12:55:58.246Z,102287.97
2023-02-28T12:58:51.345Z,102280.22
2023-02-28T13:01:48.844Z,102283.03
2023-02-28T13:05:09.439Z,102277.94
2023-02-28T13:08:23.704Z,102266.88
2023-02-28T13:10:55.472Z,102268.22
2023-02-28T13:13:30.651Z,102273.66
2023-02-28T13:16:08.268Z,102272.59
2023-02-28T13:18:40.654Z,102273.34
2023-02-28T13:21:11.223Z,102271.78
2023-02-28T13:23:42.567Z,102270.19
2023-02-28T13:26:09.859Z,102266.88
2023-02-28T13:28:55.586Z,102279.75
2023-02-28T13:32:11.338Z,102275.97
2023-02-28T13:35:43.908Z,102271.88
2023-02-28T13:38:58.254Z,102267.84
2023-02-28T13:42:14.728Z,102266.56
2023-02-28T13:46:00.778Z,102277.28
2023-02-28T13:49:12.828Z,102267.97
2023-02-28T13:56:51.007Z,102259.34
2023-02-28T14:00:32.259Z,102254.97
2023-02-28T14:03:59.210Z,102249.44
2023-02-28T14:07:43.657Z,102241.25
2023-02-28T14:11:30.179Z,102249.75
2023-02-28T14:15:22.394Z,102240.91
2023-02-28T14:26:19.074Z,102250.09
2023-02-28T14:34:36.138Z,102252.38
2023-02-28T14:36:59.068Z,102246.72
2023-02-28T14:39:53.380Z,102245.44
2023-02-28T14:47:56.191Z,102246.34
2023-02-28T14:50:53.658Z,102238.06
2023-02-28T14:54:08.057Z,102232.00
2023-02-28T14:57:41.165Z,102242.06
2023-02-28T15:00:47.511Z,102234.81
2023-02-28T15:04:00.378Z,102234.41
2023-02-28T15:06:52.178Z,102244.44
2023-02-28T15:09:37.638Z,102231.78
2023-02-28T15:15:18.118Z,102231.31
2023-02-28T15:18:02.847Z,102236.06
2023-02-28T15:20:44.540Z,102228.03
2023-02-28T15:23:28.792Z,102226.06
2023-02-28T15:26:19.371Z,102231.81
2023-02-28T15:29:08.383Z,102216.81
2023-02-28T15:31:57.796Z,102222.59
2023-02-28T15:34:48.057Z,102225.03
2023-02-28T15:38:02.399Z,102221.28
2023-02-28T15:40:47.113Z,102219.41
2023-02-28T15:43:44.730Z,102217.53
2023-02-28T15:46:33.858Z,102221.72
2023-02-28T15:49:22.561Z,102233.63
2023-02-28T15:52:40.084Z,102224.69
2023-02-28T15:55:37.440Z,102218.34
2023-02-28T15:58:30.393Z,102224.09
2023-02-28T16:02:06.657Z,102220.13
2023-02-28T16:05:44.679Z,102222.28
2023-02-28T16:08:29.234Z,102226.28
2023-02-28T16:11:05.884Z,102233.06
2023-02-28T16:13:45.760Z,102229.31
2023-02-28T16:16:46.455Z,102230.75
2023-02-28T16:19:36.479Z,102233.84
2023-02-28T16:22:36.057Z,102230.91
2023-02-28T16:29:27.551Z,102235.06
2023-02-28T16:33:05.178Z,102231.88
2023-02-28T16:36:30.035Z,102235.13
2023-02-28T16:39:26.278Z,102230.53
2023-02-28T16:41:55.770Z,102229.34
2023-02-28T16:45:12.521Z,102227.41
2023-02-28T16:55:50.989Z,102237.97
2023-02-28T16:58:58.998Z,102234.28
2023-02-28T17:01:46.916Z,102239.19
2023-02-28T17:04:20.472Z,102236.31
2023-02-28T17:07:39.688Z,102241.28
2023-02-28T17:10:31.854Z,102240.72
2023-02-28T17:13:15.153Z,102232.75
2023-02-28T17:16:02.781Z,102241.28
2023-02-28T17:18:40.297Z,102244.56
2023-02-28T17:21:22.049Z,102253.00
2023-02-28T17:24:03.757Z,102245.88
2023-02-28T17:26:52.628Z,102247.38
2023-02-28T17:29:43.044Z,102250.63
2023-02-28T17:32:43.718Z,102252.13
2023-02-28T17:35:33.072Z,102255.38
2023-02-28T17:41:58.187Z,102257.59
2023-02-28T17:44:35.746Z,102256.50
2023-02-28T17:51:13.279Z,102249.72
2023-02-28T17:54:07.768Z,102253.00
2023-02-28T17:57:08.598Z,102249.53
2023-02-28T18:03:32.334Z,102256.56
2023-02-28T18:06:22.944Z,102261.41
2023-02-28T18:09:02.424Z,102257.63
2023-02-28T18:11:46.429Z,102252.16
2023-02-28T18:14:14.072Z,102258.91
2023-02-28T18:17:07.300Z,102257.91
2023-02-28T18:19:50.603Z,102254.31
2023-02-28T18:22:25.560Z,102265.22
2023-02-28T18:24:55.937Z,102263.25
2023-02-28T18:27:27.050Z,102266.50
2023-02-28T18:29:58.741Z,102275.13
2023-02-28T18:32:39.540Z,102271.66
2023-02-28T18:35:07.574Z,102275.25
2023-02-28T18:38:02.883Z,102281.97
2023-02-28T18:40:41.862Z,102277.50
2023-02-28T18:43:29.598Z,102281.53
2023-02-28T18:46:10.889Z,102285.03
2023-02-28T18:51:50.461Z,102283.03
2023-02-28T19:01:49.513Z,102294.16
2023-02-28T19:05:22.157Z,102294.16
2023-02-28T19:12:16.054Z,102298.13
2023-02-28T19:15:35.248Z,102284.00
2023-02-28T19:23:00.469Z,102271.13
2023-02-28T19:26:00.496Z,102271.81
2023-02-28T19:32:42.385Z,102284.84
2023-02-28T19:36:31.061Z,102293.81
2023-02-28T19:39:29.743Z,102291.94
2023-02-28T19:42:26.491Z,102295.09
2023-02-28T19:45:27.364Z,102285.66
2023-02-28T19:48:29.453Z,102294.97
2023-02-28T19:54:27.628Z,102288.59
2023-02-28T19:57:29.784Z,102282.78
2023-02-28T20:00:09.194Z,102289.28
2023-02-28T20:02:50.804Z,102286.47
2023-02-28T20:09:47.617Z,102277.09
2023-02-28T20:12:29.706Z,102285.06
2023-02-28T20:15:15.975Z,102294.59
2023-02-28T20:17:52.414Z,102289.88
2023-02-28T20:20:49.172Z,102285.88
2023-02-28T20:24:00.224Z,102286.31
2023-02-28T20:27:07.857Z,102289.44
2023-02-28T20:29:34.334Z,102290.09
2023-02-28T20:32:40.588Z,102286.84
2023-02-28T20:39:00.640Z,102279.78
2023-02-28T20:42:15.589Z,102272.63
2023-02-28T20:45:21.123Z,102275.78
2023-02-28T20:48:10.687Z,102273.75
2023-02-28T20:51:08.179Z,102266.69
2023-02-28T20:54:11.817Z,102259.53
2023-02-28T20:57:30.653Z,102264.34
2023-02-28T21:00:28.048Z,102258.06
2023-02-28T21:03:13.973Z,102260.41
2023-02-28T21:06:15.867Z,102266.31
2023-02-28T21:09:25.542Z,102265.53
2023-02-28T21:20:26.597Z,102258.63
2023-02-28T21:27:12.181Z,102256.06
2023-02-28T21:37:12.576Z,102253.84
2023-02-28T21:40:29.255Z,102253.59
2023-02-28T21:43:52.277Z,102259.28
2023-02-28T21:47:08.681Z,102257.94
2023-02-28T21:50:27.845Z,102268.34
2023-02-28T21:53:08.716Z,102267.84
2023-02-28T21:56:13.811Z,102265.94
2023-02-28T21:59:15.358Z,102264.81
2023-02-28T22:02:51.923Z,102274.31
2023-02-28T22:06:03.936Z,102280.16
2023-02-28T22:12:27.534Z,102277.63
2023-02-28T22:15:01.512Z,102281.09
2023-02-28T22:17:45.483Z,102272.25
2023-02-28T22:20:28.267Z,102282.19
2023-02-28T22:23:11.247Z,102281.06
2023-02-28T22:25:42.481Z,102281.59
2023-02-28T22:28:18.836Z,102282.16
2023-02-28T22:31:11.450Z,102295.00
2023-02-28T22:33:55.655Z,102290.19
2023-02-28T22:36:53.092Z,102289.41
2023-02-28T22:40:13.182Z,102289.53
2023-02-28T22:42:43.990Z,102294.81
2023-02-28T22:45:23.894Z,102294.16
2023-02-28T22:48:13.975Z,102290.03
2023-02-28T22:50:56.384Z,102290.81
2023-02-28T22:53:55.231Z,102296.72
2023-02-28T22:56:42.684Z,102292.47
2023-02-28T22:59:34.062Z,102298.41
2023-02-28T23:02:16.616Z,102296.84
2023-02-28T23:05:02.439Z,102305.31
2023-02-28T23:08:01.403Z,102302.88
2023-02-28T23:10:54.154Z,102309.00
2023-02-28T23:13:42.143Z,102310.91
2023-02-28T23:16:42.163Z,102320.31
2023-02-28T23:19:24.526Z,102315.94
2023-02-28T23:22:18.809Z,102326.13
2023-02-28T23:25:06.625Z,102327.00
2023-02-28T23:27:49.756Z,102326.13
2023-02-28T23:30:37.641Z,102319.41
2023-02-28T23:33:20.245Z,102323.13
2023-02-28T23:36:26.953Z,102325.03
2023-02-28T23:42:15.423Z,102312.44
2023-02-28T23:45:00.281Z,102308.97
2023-02-28T23:47:37.468Z,102303.69
2023-02-28T23:54:37.824Z,102297.06
2023-02-28T23:58:06.751Z,102298.28
